Time;durP1;ratioP1;P1;durP2;ratioP2;P2;SDS_P1;SDS_P2;PMS_P1;PMS_P2;Temp;Humidity;BMP_temperature;BMP_pressure;BME280_temperature;BME280_humidity;BME280_pressure;Samples;Min_cycle;Max_cycle;Signal;HPM_P1;HPM_P2
2023/10/25 00:02:21;;;;;;;;;;;;;;;13.33;100.00;96774.50;5077154;28;19924;-86
2023/10/25 00:04:48;;;;;;;;;;;;;;;13.27;100.00;96773.03;5073954;28;20395;-84
2023/10/25 00:07:17;;;;;;;;;;;;;;;13.28;100.00;96774.59;5076888;28;19990;-85
2023/10/25 00:09:43;;;;;;;;;;;;;;;13.30;100.00;96772.44;5087042;28;19931;-85
2023/10/25 00:12:10;;;;;;;;;;;;;;;13.31;100.00;96776.66;5073839;28;20316;-85
2023/10/25 00:14:36;;;;;;;;;;;;;;;13.22;100.00;96775.84;5085886;28;20391;-86
2023/10/25 00:17:02;;;;;;;;;;;;;;;13.26;100.00;96777.59;5085314;28;20387;-85
2023/10/25 00:19:29;;;;;;;;;;;;;;;13.28;100.00;96782.66;5087337;28;19934;-85
2023/10/25 00:21:55;;;;;;;;;;;;;;;13.20;100.00;96788.75;5089722;28;19930;-85
2023/10/25 00:24:23;;;;;;;;;;;;;;;13.24;100.00;96787.06;5086934;28;19970;-85
2023/10/25 00:26:50;;;;;;;;;;;;;;;13.24;100.00;96795.09;5084642;28;19982;-85
2023/10/25 00:29:17;;;;;;;;;;;;;;;13.27;100.00;96789.91;5083953;28;19933;-84
2023/10/25 00:31:43;;;;;;;;;;;;;;;13.24;100.00;96790.53;5097722;28;19924;-85
2023/10/25 00:34:10;;;;;;;;;;;;;;;13.28;100.00;96790.69;5083615;28;19928;-85
2023/10/25 00:36:36;;;;;;;;;;;;;;;13.28;100.00;96790.69;5080311;28;19924;-86
2023/10/25 00:39:02;;;;;;;;;;;;;;;13.28;100.00;96788.00;5062506;28;19939;-85
2023/10/25 00:41:30;;;;;;;;;;;;;;;13.26;100.00;96788.31;5082581;28;19924;-85
2023/10/25 00:43:56;;;;;;;;;;;;;;;13.28;100.00;96793.38;5074464;28;19960;-85
2023/10/25 00:46:24;;;;;;;;;;;;;;;13.27;100.00;96800.66;5081766;28;19924;-85
2023/10/25 00:48:53;;;;;;;;;;;;;;;13.23;100.00;96804.22;5056055;28;20356;-85
2023/10/25 00:51:21;;;;;;;;;;;;;;;13.23;100.00;96799.66;5083142;28;20022;-85
2023/10/25 00:53:48;;;;;;;;;;;;;;;13.19;100.00;96801.38;5078459;28;19960;-84
2023/10/25 00:56:15;;;;;;;;;;;;;;;13.20;100.00;96799.47;5085705;28;20470;-85
2023/10/25 00:58:44;;;;;;;;;;;;;;;13.17;100.00;96800.09;5089014;28;20019;-85
2023/10/25 01:01:11;;;;;;;;;;;;;;;13.11;100.00;96795.97;5060575;28;19924;-85
2023/10/25 01:03:37;;;;;;;;;;;;;;;13.12;100.00;96803.69;5080616;28;20022;-85
2023/10/25 01:06:04;;;;;;;;;;;;;;;13.12;100.00;96810.97;5083866;28;19928;-84
2023/10/25 01:08:30;;;;;;;;;;;;;;;13.14;100.00;96803.38;5062272;28;19993;-85
2023/10/25 01:10:58;;;;;;;;;;;;;;;13.04;100.00;96808.97;5080996;28;19964;-85
2023/10/25 01:13:24;;;;;;;;;;;;;;;13.12;100.00;96813.63;5097273;28;19928;-85
2023/10/25 01:15:52;;;;;;;;;;;;;;;13.14;100.00;96822.16;5078446;28;20041;-85
2023/10/25 01:18:18;;;;;;;;;;;;;;;13.17;100.00;96821.53;5087556;28;19932;-85
2023/10/25 01:20:45;;;;;;;;;;;;;;;13.16;100.00;96817.28;5097260;28;19946;-83
2023/10/25 01:23:12;;;;;;;;;;;;;;;13.14;100.00;96827.50;5070781;28;19992;-84
2023/10/25 01:25:40;;;;;;;;;;;;;;;13.17;100.00;96816.97;5078310;28;20005;-85
2023/10/25 01:28:07;;;;;;;;;;;;;;;13.16;100.00;96819.94;5083747;28;19924;-84
2023/10/25 01:30:33;;;;;;;;;;;;;;;13.16;100.00;96806.53;5080209;28;19924;-84
2023/10/25 01:33:00;;;;;;;;;;;;;;;13.15;100.00;96813.03;5069556;28;19959;-84
2023/10/25 01:35:26;;;;;;;;;;;;;;;13.12;100.00;96817.09;5085650;28;19935;-84
2023/10/25 01:37:52;;;;;;;;;;;;;;;13.14;100.00;96808.75;5077514;28;20378;-85
2023/10/25 01:40:20;;;;;;;;;;;;;;;13.19;100.00;96808.63;5092708;28;19934;-84
2023/10/25 01:42:46;;;;;;;;;;;;;;;13.19;100.00;96813.97;5092379;28;20019;-85
2023/10/25 01:45:13;;;;;;;;;;;;;;;13.20;100.00;96804.84;5091690;28;19924;-85
2023/10/25 01:47:40;;;;;;;;;;;;;;;13.21;100.00;96809.13;5092600;28;19928;-85
2023/10/25 01:50:07;;;;;;;;;;;;;;;13.18;100.00;96807.06;5092727;28;20026;-84
2023/10/25 01:52:34;;;;;;;;;;;;;;;13.18;100.00;96805.16;5066609;28;19978;-85
2023/10/25 01:55:00;;;;;;;;;;;;;;;13.21;100.00;96804.56;5085615;28;20036;-85
2023/10/25 01:57:27;;;;;;;;;;;;;;;13.19;100.00;96803.25;5092362;28;20317;-84
2023/10/25 01:59:53;;;;;;;;;;;;;;;13.19;100.00;96803.25;5084266;28;19928;-85
2023/10/25 02:02:19;;;;;;;;;;;;;;;13.16;100.00;96801.97;5092065;28;19994;-86
2023/10/25 02:04:46;;;;;;;;;;;;;;;13.19;100.00;96797.91;5091801;28;19971;-85
2023/10/25 02:07:12;;;;;;;;;;;;;;;13.14;100.00;96795.34;5091676;28;19975;-86
2023/10/25 02:09:38;;;;;;;;;;;;;;;13.15;100.00;96804.97;5090753;28;19928;-85
2023/10/25 02:12:05;;;;;;;;;;;;;;;13.05;100.00;96794.47;5086043;28;19924;-85
2023/10/25 02:14:33;;;;;;;;;;;;;;;13.12;100.00;96792.19;5092255;28;20315;-85
2023/10/25 02:17:00;;;;;;;;;;;;;;;13.11;100.00;96787.91;5083091;28;19924;-84
2023/10/25 02:19:26;;;;;;;;;;;;;;;13.14;100.00;96795.34;5096810;28;19923;-85
2023/10/25 02:21:52;;;;;;;;;;;;;;;13.12;100.00;96792.97;5096044;28;19924;-85
2023/10/25 02:24:19;;;;;;;;;;;;;;;13.17;100.00;96798.22;5085338;28;20069;-84
2023/10/25 02:26:45;;;;;;;;;;;;;;;13.14;100.00;96806.88;5090648;28;20015;-84
2023/10/25 02:29:11;;;;;;;;;;;;;;;13.16;100.00;96803.88;5091764;28;20015;-85
2023/10/25 02:31:39;;;;;;;;;;;;;;;13.15;100.00;96797.72;5091559;28;19960;-85
2023/10/25 02:34:05;;;;;;;;;;;;;;;13.16;100.00;96793.16;5089235;28;19946;-85
2023/10/25 02:36:32;;;;;;;;;;;;;;;13.09;100.00;96803.53;5083667;28;20018;-85
2023/10/25 02:38:58;;;;;;;;;;;;;;;13.05;100.00;96814.03;5089977;28;20408;-85
2023/10/25 02:41:25;;;;;;;;;;;;;;;13.05;100.00;96810.56;5093364;28;19924;-85
2023/10/25 02:43:53;;;;;;;;;;;;;;;13.05;100.00;96813.22;5087026;28;19973;-85
2023/10/25 02:46:20;;;;;;;;;;;;;;;13.01;100.00;96813.03;5083308;28;19931;-85
2023/10/25 02:48:48;;;;;;;;;;;;;;;13.03;100.00;96816.19;5089692;28;19967;-85
2023/10/25 02:51:14;;;;;;;;;;;;;;;13.00;100.00;96817.59;5091500;28;20015;-86
2023/10/25 02:53:40;;;;;;;;;;;;;;;13.02;100.00;96811.97;5082334;28;20015;-85
2023/10/25 02:56:07;;;;;;;;;;;;;;;12.95;100.00;96814.25;5088822;28;20011;-86
2023/10/25 02:58:34;;;;;;;;;;;;;;;12.94;100.00;96808.09;5091329;28;20403;-85
2023/10/25 03:01:01;;;;;;;;;;;;;;;12.89;100.00;96813.59;5085229;28;19974;-85
2023/10/25 03:03:28;;;;;;;;;;;;;;;12.86;100.00;96821.44;5082137;28;19928;-84
2023/10/25 03:05:56;;;;;;;;;;;;;;;12.86;100.00;96816.88;5085682;28;19928;-85
2023/10/25 03:08:22;;;;;;;;;;;;;;;12.87;100.00;96810.41;5055790;28;20493;-84
2023/10/25 03:10:49;;;;;;;;;;;;;;;12.86;100.00;96816.88;5073162;28;19925;-84
2023/10/25 03:13:15;;;;;;;;;;;;;;;12.90;100.00;96812.47;5088244;28;20410;-85
2023/10/25 03:15:42;;;;;;;;;;;;;;;12.94;100.00;96813.47;5075421;28;19924;-85
2023/10/25 03:18:08;;;;;;;;;;;;;;;12.94;100.00;96810.78;5081462;28;20358;-86
2023/10/25 03:20:35;;;;;;;;;;;;;;;12.94;100.00;96808.09;5065685;28;19930;-86
2023/10/25 03:23:03;;;;;;;;;;;;;;;12.95;100.00;96812.38;5086905;28;19956;-86
2023/10/25 03:25:29;;;;;;;;;;;;;;;12.97;100.00;96798.66;5075684;28;20584;-86
2023/10/25 03:27:55;;;;;;;;;;;;;;;12.97;100.00;96796.78;5080847;28;19924;-86
2023/10/25 03:30:22;;;;;;;;;;;;;;;13.00;100.00;96801.53;5086252;28;19925;-85
2023/10/25 03:32:48;;;;;;;;;;;;;;;12.98;100.00;96797.56;5079087;28;20011;-85
2023/10/25 03:35:14;;;;;;;;;;;;;;;12.97;100.00;96802.13;5067535;28;19928;-85
2023/10/25 03:37:41;;;;;;;;;;;;;;;12.97;100.00;96796.78;5065498;28;19935;-85
2023/10/25 03:40:10;;;;;;;;;;;;;;;12.92;100.00;96799.59;5083243;28;20417;-85
2023/10/25 03:42:36;;;;;;;;;;;;;;;12.93;100.00;96801.19;5078500;28;19930;-86
2023/10/25 03:45:03;;;;;;;;;;;;;;;12.90;100.00;96799.09;5088842;28;19924;-84
2023/10/25 03:47:30;;;;;;;;;;;;;;;12.89;100.00;96797.53;5077463;28;19929;-85
2023/10/25 03:49:57;;;;;;;;;;;;;;;12.88;100.00;96803.16;5085454;28;20013;-83
2023/10/25 03:52:23;;;;;;;;;;;;;;;12.83;100.00;96800.63;5076451;28;19931;-85
2023/10/25 03:54:49;;;;;;;;;;;;;;;12.84;100.00;96802.97;5077766;28;20019;-85
2023/10/25 03:57:17;;;;;;;;;;;;;;;12.86;100.00;96810.72;5066292;28;20024;-86
2023/10/25 03:59:43;;;;;;;;;;;;;;;12.84;100.00;96807.56;5074242;28;19963;-85
2023/10/25 04:02:10;;;;;;;;;;;;;;;12.76;100.00;96811.75;5076014;28;19936;-85
2023/10/25 04:04:36;;;;;;;;;;;;;;;12.77;100.00;96802.63;5083687;28;19931;-84
2023/10/25 04:07:03;;;;;;;;;;;;;;;12.78;100.00;96809.56;5077779;28;19964;-84
2023/10/25 04:09:29;;;;;;;;;;;;;;;12.79;100.00;96805.78;5079714;28;19932;-85
2023/10/25 04:11:55;;;;;;;;;;;;;;;12.78;100.00;96814.16;5082637;28;20501;-85
2023/10/25 04:14:23;;;;;;;;;;;;;;;12.71;100.00;96809.22;5078710;28;19925;-85
2023/10/25 04:16:49;;;;;;;;;;;;;;;12.71;100.00;96814.56;5071018;28;20035;-84
2023/10/25 04:19:16;;;;;;;;;;;;;;;12.67;100.00;96807.41;5082559;28;19956;-86
2023/10/25 04:21:42;;;;;;;;;;;;;;;12.73;100.00;96804.31;5083717;28;19928;-85
2023/10/25 04:24:09;;;;;;;;;;;;;;;12.71;100.00;96801.16;5071414;28;19924;-86
2023/10/25 04:26:35;;;;;;;;;;;;;;;12.72;100.00;96799.28;5068385;28;20367;-84
2023/10/25 04:29:01;;;;;;;;;;;;;;;12.73;100.00;96801.66;5085257;28;19924;-86
2023/10/25 04:31:30;;;;;;;;;;;;;;;12.70;100.00;96807.63;5060505;28;19928;-86
2023/10/25 04:33:56;;;;;;;;;;;;;;;12.70;100.00;96799.56;5081756;28;20022;-86
2023/10/25 04:36:22;;;;;;;;;;;;;;;12.73;100.00;96804.31;5078096;28;19931;-84
2023/10/25 04:38:49;;;;;;;;;;;;;;;12.69;100.00;96799.91;5088581;28;20040;-85
2023/10/25 04:41:15;;;;;;;;;;;;;;;12.68;100.00;96803.66;5088449;28;19989;-85
2023/10/25 04:43:44;;;;;;;;;;;;;;;12.67;100.00;96797.50;5084928;28;19923;-85
2023/10/25 04:46:13;;;;;;;;;;;;;;;12.67;100.00;96799.38;5073004;28;19928;-85
2023/10/25 04:48:41;;;;;;;;;;;;;;;12.63;100.00;96801.88;5080488;28;19928;-86
2023/10/25 04:51:12;;;;;;;;;;;;;;;12.61;100.00;96798.72;5074093;28;19942;-85
2023/10/25 04:53:39;;;;;;;;;;;;;;;12.62;100.00;96804.88;5068786;28;19924;-85
2023/10/25 04:56:06;;;;;;;;;;;;;;;12.62;100.00;96794.94;5074327;28;19927;-83
2023/10/25 04:58:32;;;;;;;;;;;;;;;12.64;100.00;96795.44;5078593;28;19925;-83
2023/10/25 05:00:59;;;;;;;;;;;;;;;12.62;100.00;96794.94;5072062;28;19972;-85
2023/10/25 05:03:25;;;;;;;;;;;;;;;12.61;100.00;96798.72;5080143;28;19928;-83
2023/10/25 05:05:54;;;;;;;;;;;;;;;12.62;100.00;96786.13;5071365;28;19975;-84
2023/10/25 05:08:21;;;;;;;;;;;;;;;12.59;100.00;96787.53;5080456;28;19975;-83
2023/10/25 05:10:52;;;;;;;;;;;;;;;12.60;100.00;96791.75;5079015;28;19924;-84
2023/10/25 05:13:19;;;;;;;;;;;;;;;12.59;100.00;96792.09;5084578;28;19924;-84
2023/10/25 05:15:45;;;;;;;;;;;;;;;12.58;100.00;96783.25;5062125;28;19928;-85
2023/10/25 05:18:12;;;;;;;;;;;;;;;12.59;100.00;96784.84;5077676;28;19931;-84
2023/10/25 05:20:41;;;;;;;;;;;;;;;12.58;100.00;96782.47;5073976;28;19924;-84
2023/10/25 05:23:09;;;;;;;;;;;;;;;12.55;100.00;96789.22;5080522;28;19935;-83
2023/10/25 05:25:36;;;;;;;;;;;;;;;12.55;100.00;96781.19;5071660;28;20019;-84
2023/10/25 05:28:02;;;;;;;;;;;;;;;12.52;100.00;96779.09;5080561;28;19935;-84
2023/10/25 05:30:29;;;;;;;;;;;;;;;12.48;100.00;96794.19;5068116;28;20040;-85
2023/10/25 05:32:58;;;;;;;;;;;;;;;12.46;100.00;96783.00;5074163;28;19951;-84
2023/10/25 05:35:25;;;;;;;;;;;;;;;12.50;100.00;96785.88;5069763;28;20002;-85
2023/10/25 05:37:51;;;;;;;;;;;;;;;12.49;100.00;96779.72;5080077;28;19928;-83
2023/10/25 05:40:20;;;;;;;;;;;;;;;12.44;100.00;96787.84;5078256;28;20027;-84
2023/10/25 05:42:47;;;;;;;;;;;;;;;12.39;100.00;96785.28;5079926;28;20736;-84
2023/10/25 05:45:14;;;;;;;;;;;;;;;12.36;100.00;96796.59;5070805;28;19932;-84
2023/10/25 05:47:41;;;;;;;;;;;;;;;12.34;100.00;96793.44;5069361;28;19928;-82
2023/10/25 05:50:10;;;;;;;;;;;;;;;12.31;100.00;96799.41;5070902;28;20054;-83
2023/10/25 05:52:36;;;;;;;;;;;;;;;12.30;100.00;96800.47;5076433;28;19932;-85
2023/10/25 05:55:04;;;;;;;;;;;;;;;12.31;100.00;96804.75;5055434;28;19971;-84
2023/10/25 05:57:32;;;;;;;;;;;;;;;12.34;100.00;96798.78;5077799;28;19928;-83
2023/10/25 05:59:59;;;;;;;;;;;;;;;12.29;100.00;96806.91;5054678;28;19928;-83
2023/10/25 06:02:27;;;;;;;;;;;;;;;12.22;100.00;96806.53;5076866;28;20427;-84
2023/10/25 06:04:55;;;;;;;;;;;;;;;12.14;100.00;96801.88;5069146;28;19971;-84
2023/10/25 06:07:22;;;;;;;;;;;;;;;12.10;100.00;96803.59;5073000;28;19979;-85
2023/10/25 06:09:49;;;;;;;;;;;;;;;12.10;100.00;96806.28;5067730;28;19931;-83
2023/10/25 06:12:15;;;;;;;;;;;;;;;12.09;100.00;96791.28;5070239;28;19924;-85
2023/10/25 06:14:43;;;;;;;;;;;;;;;12.21;100.00;96804.97;5074475;28;19925;-83
2023/10/25 06:17:10;;;;;;;;;;;;;;;12.29;100.00;96801.56;5069748;28;19928;-84
2023/10/25 06:19:36;;;;;;;;;;;;;;;12.33;100.00;96805.22;5079000;28;19924;-83
2023/10/25 06:22:02;;;;;;;;;;;;;;;12.33;100.00;96811.38;5084556;28;19939;-84
2023/10/25 06:24:29;;;;;;;;;;;;;;;12.35;100.00;96806.50;5080485;28;19928;-83
2023/10/25 06:26:55;;;;;;;;;;;;;;;12.38;100.00;96810.47;5074530;28;20011;-83
2023/10/25 06:29:21;;;;;;;;;;;;;;;12.43;100.00;96813.84;5074769;28;19932;-84
2023/10/25 06:31:51;;;;;;;;;;;;;;;12.39;100.00;96814.72;5074665;28;19934;-82
2023/10/25 06:34:18;;;;;;;;;;;;;;;12.36;100.00;96812.66;5069459;28;20007;-82
2023/10/25 06:36:44;;;;;;;;;;;;;;;12.30;100.00;96808.50;5087790;28;20022;-84
2023/10/25 06:39:11;;;;;;;;;;;;;;;12.32;100.00;96814.34;5084039;28;20042;-85
2023/10/25 06:41:37;;;;;;;;;;;;;;;12.35;100.00;96816.41;5072711;28;20419;-86
2023/10/25 06:44:04;;;;;;;;;;;;;;;12.24;100.00;96805.16;5072553;28;19974;-85
2023/10/25 06:46:31;;;;;;;;;;;;;;;12.18;100.00;96808.22;5062408;28;19928;-84
2023/10/25 06:48:59;;;;;;;;;;;;;;;12.15;100.00;96811.50;5084161;28;19924;-80
2023/10/25 06:51:26;;;;;;;;;;;;;;;12.22;100.00;96806.53;5070869;28;20409;-86
2023/10/25 06:53:52;;;;;;;;;;;;;;;12.28;100.00;96808.81;5069611;28;20296;-84
2023/10/25 06:56:19;;;;;;;;;;;;;;;12.30;100.00;96803.94;5066210;28;20459;-85
2023/10/25 06:58:45;;;;;;;;;;;;;;;12.28;100.00;96797.31;5090737;28;19977;-84
2023/10/25 07:01:12;;;;;;;;;;;;;;;12.13;100.00;96792.28;5074919;28;20465;-83
2023/10/25 07:03:42;;;;;;;;;;;;;;;12.17;100.00;96801.28;5081388;28;19924;-83
2023/10/25 07:06:11;;;;;;;;;;;;;;;12.20;100.00;96795.34;5079260;28;19958;-83
2023/10/25 07:08:37;;;;;;;;;;;;;;;12.12;100.00;96791.50;5087292;28;20307;-83
2023/10/25 07:11:04;;;;;;;;;;;;;;;12.13;100.00;96794.97;5063450;28;19928;-82
2023/10/25 07:13:30;;;;;;;;;;;;;;;12.20;100.00;96792.66;5072573;28;19924;-83
2023/10/25 07:15:57;;;;;;;;;;;;;;;12.24;100.00;96797.13;5081805;28;19928;-83
2023/10/25 07:18:23;;;;;;;;;;;;;;;12.28;100.00;96792.75;5086164;28;19930;-85
2023/10/25 07:20:50;;;;;;;;;;;;;;;12.30;100.00;96792.44;5077553;28;20382;-84
2023/10/25 07:23:18;;;;;;;;;;;;;;;12.30;100.00;96789.78;5087223;28;19935;-84
2023/10/25 07:25:44;;;;;;;;;;;;;;;12.29;100.00;96791.66;5083261;28;19971;-83
2023/10/25 07:28:11;;;;;;;;;;;;;;;12.18;100.00;96794.84;5078406;28;19938;-84
2023/10/25 07:30:37;;;;;;;;;;;;;;;12.18;100.00;96800.19;5081119;28;20015;-83
2023/10/25 07:33:04;;;;;;;;;;;;;;;12.15;100.00;96792.78;5083466;28;19930;-84
2023/10/25 07:35:30;;;;;;;;;;;;;;;11.90;100.00;96784.19;5078600;28;20577;-83
2023/10/25 07:37:56;;;;;;;;;;;;;;;11.95;100.00;96780.59;5080986;28;20003;-83
2023/10/25 07:40:24;;;;;;;;;;;;;;;11.82;100.00;96782.19;5086112;28;19924;-83
2023/10/25 07:42:50;;;;;;;;;;;;;;;11.97;100.00;96781.09;5085513;28;20585;-83
2023/10/25 07:45:17;;;;;;;;;;;;;;;12.12;100.00;96785.34;5077336;28;19928;-83
2023/10/25 07:47:43;;;;;;;;;;;;;;;12.20;100.00;96779.28;5060772;28;20019;-82
2023/10/25 07:50:10;;;;;;;;;;;;;;;12.26;100.00;96794.94;5081614;28;20425;-84
2023/10/25 07:52:36;;;;;;;;;;;;;;;12.01;100.00;96783.97;5079209;28;19931;-84
2023/10/25 07:55:03;;;;;;;;;;;;;;;11.85;100.00;96792.28;5076024;28;19933;-84
2023/10/25 07:57:31;;;;;;;;;;;;;;;11.71;100.00;96796.84;5077662;28;19930;-84
2023/10/25 07:59:58;;;;;;;;;;;;;;;11.70;100.00;96789.13;5056686;28;19930;-82
2023/10/25 08:02:24;;;;;;;;;;;;;;;11.48;100.00;96789.75;5077729;28;20413;-83
2023/10/25 08:04:51;;;;;;;;;;;;;;;11.30;100.00;96786.09;5076408;28;19924;-82
2023/10/25 08:07:17;;;;;;;;;;;;;;;11.25;100.00;96785.38;5072540;28;19928;-83
2023/10/25 08:09:46;;;;;;;;;;;;;;;11.23;100.00;96774.97;5060443;28;20027;-83
2023/10/25 08:12:12;;;;;;;;;;;;;;;11.29;100.00;96787.19;5081958;28;19929;-84
2023/10/25 08:14:40;;;;;;;;;;;;;;;11.34;100.00;96780.94;5064566;28;19924;-84
2023/10/25 08:17:06;;;;;;;;;;;;;;;11.51;100.00;96765.13;5078984;28;20035;-83
2023/10/25 08:19:33;;;;;;;;;;;;;;;11.82;100.00;96776.06;5074721;28;20498;-83
2023/10/25 08:22:00;;;;;;;;;;;;;;;11.98;100.00;96757.78;5077727;28;20011;-86
2023/10/25 08:24:26;;;;;;;;;;;;;;;12.06;100.00;96754.44;5087444;28;19928;-84
2023/10/25 08:26:55;;;;;;;;;;;;;;;12.09;100.00;96764.53;5075331;28;19932;-83
2023/10/25 08:29:21;;;;;;;;;;;;;;;11.88;100.00;96764.94;5086902;28;20017;-86
2023/10/25 08:31:49;;;;;;;;;;;;;;;11.68;100.00;96765.31;5080562;28;20015;-83
2023/10/25 08:34:15;;;;;;;;;;;;;;;11.60;100.00;96760.69;5083007;28;20319;-83
2023/10/25 08:36:42;;;;;;;;;;;;;;;11.59;100.00;96763.63;5080346;28;19931;-83
2023/10/25 08:39:09;;;;;;;;;;;;;;;11.74;100.00;96771.41;5079116;28;19928;-83
2023/10/25 08:41:36;;;;;;;;;;;;;;;11.79;100.00;96772.09;5085464;28;19930;-84
2023/10/25 08:44:03;;;;;;;;;;;;;;;11.73;100.00;96772.47;5083481;28;19951;-84
2023/10/25 08:46:31;;;;;;;;;;;;;;;11.82;100.00;96770.72;5063630;28;19924;-85
2023/10/25 08:48:59;;;;;;;;;;;;;;;12.06;100.00;96765.13;5080540;28;20083;-83
2023/10/25 08:51:25;;;;;;;;;;;;;;;12.18;100.00;96773.44;5077515;28;19928;-85
2023/10/25 08:53:54;;;;;;;;;;;;;;;12.28;100.00;96768.66;5082375;28;19932;-83
2023/10/25 08:56:20;;;;;;;;;;;;;;;12.32;100.00;96769.63;5084746;28;19978;-84
2023/10/25 08:58:47;;;;;;;;;;;;;;;12.08;100.00;96753.03;5085213;28;19924;-84
2023/10/25 09:01:13;;;;;;;;;;;;;;;11.86;100.00;96751.09;5078993;28;19938;-84
2023/10/25 09:03:40;;;;;;;;;;;;;;;11.59;100.00;96748.41;5077630;28;19930;-84
2023/10/25 09:06:08;;;;;;;;;;;;;;;11.69;100.00;96758.91;5085771;28;20071;-83
2023/10/25 09:08:35;;;;;;;;;;;;;;;11.94;100.00;96751.47;5064776;28;19932;-83
2023/10/25 09:11:02;;;;;;;;;;;;;;;11.85;100.00;96752.16;5056716;28;20092;-83
2023/10/25 09:13:29;;;;;;;;;;;;;;;11.83;100.00;96743.66;5083254;28;19934;-83
2023/10/25 09:16:02;;;;;;;;;;;;;;;11.77;100.00;96752.88;5083756;28;19943;-83
2023/10/25 09:18:29;;;;;;;;;;;;;;;11.57;100.00;96749.78;5078335;28;19928;-84
2023/10/25 09:20:55;;;;;;;;;;;;;;;11.57;100.00;96747.91;5076816;28;19924;-84
2023/10/25 09:23:23;;;;;;;;;;;;;;;11.63;100.00;96733.34;5085211;28;20338;-84
2023/10/25 09:25:49;;;;;;;;;;;;;;;11.62;100.00;96728.28;5056095;28;20035;-84
2023/10/25 09:28:16;;;;;;;;;;;;;;;11.66;100.00;96740.78;5077580;28;19924;-84
2023/10/25 09:30:43;;;;;;;;;;;;;;;11.86;100.00;96735.03;5080626;28;19928;-83
2023/10/25 09:33:10;;;;;;;;;;;;;;;11.83;100.00;96730.28;5076347;28;19971;-84
2023/10/25 09:35:37;;;;;;;;;;;;;;;11.97;100.00;96734.81;5073424;28;20018;-82
2023/10/25 09:38:04;;;;;;;;;;;;;;;12.06;100.00;96716.97;5076128;28;19944;-83
2023/10/25 09:40:32;;;;;;;;;;;;;;;11.99;100.00;96713.91;5084125;28;19935;-83
2023/10/25 09:43:04;;;;;;;;;;;;;;;11.88;100.00;96706.09;5086349;28;19931;-84
2023/10/25 09:45:31;;;;;;;;;;;;;;;11.65;100.00;96715.13;5079184;28;19925;-83
2023/10/25 09:48:00;;;;;;;;;;;;;;;11.58;100.00;96696.00;5067145;28;19935;-84
2023/10/25 09:50:31;;;;;;;;;;;;;;;11.49;100.00;96697.00;5083572;28;19924;-84
2023/10/25 09:53:04;;;;;;;;;;;;;;;11.51;100.00;96706.31;5077286;28;19936;-84
2023/10/25 09:55:34;;;;;;;;;;;;;;;11.74;100.00;96709.88;5078486;28;19928;-85
2023/10/25 09:58:02;;;;;;;;;;;;;;;11.66;100.00;96700.66;5088126;28;19924;-84
2023/10/25 10:00:29;;;;;;;;;;;;;;;11.81;100.00;96700.38;5080573;28;19935;-84
2023/10/25 10:03:00;;;;;;;;;;;;;;;11.80;100.00;96693.44;5073036;28;19955;-83
2023/10/25 10:05:30;;;;;;;;;;;;;;;11.83;100.00;96686.69;5084634;28;19928;-83
2023/10/25 10:08:03;;;;;;;;;;;;;;;11.80;100.00;96682.72;5089932;28;20042;-83
2023/10/25 10:10:32;;;;;;;;;;;;;;;11.92;100.00;96690.22;5080230;28;19928;-83
2023/10/25 10:12:59;;;;;;;;;;;;;;;12.03;100.00;96680.13;5073031;28;19934;-84
2023/10/25 10:15:55;;;;;;;;;;;;;;;12.15;100.00;96691.06;5071960;28;19932;-83
2023/10/25 10:18:22;;;;;;;;;;;;;;;12.25;100.00;96691.66;5082872;28;20544;-84
2023/10/25 10:20:58;;;;;;;;;;;;;;;12.42;100.00;96677.59;5077887;28;19924;-84
2023/10/25 10:23:33;;;;;;;;;;;;;;;12.43;100.00;96671.16;5077397;28;19932;-85
2023/10/25 10:26:01;;;;;;;;;;;;;;;12.29;100.00;96663.16;5085833;28;20037;-84
2023/10/25 10:28:39;;;;;;;;;;;;;;;12.33;100.00;96661.47;5088622;28;19924;-85
2023/10/25 10:31:06;;;;;;;;;;;;;;;12.44;100.00;96656.66;5076528;28;19932;-85
2023/10/25 10:33:34;;;;;;;;;;;;;;;12.53;100.00;96649.50;5069403;28;19924;-85
2023/10/25 10:36:01;;;;;;;;;;;;;;;12.63;100.00;96635.81;5070904;28;20007;-85
2023/10/25 10:38:27;;;;;;;;;;;;;;;12.59;100.00;96634.88;5086764;28;20387;-84
2023/10/25 10:41:01;;;;;;;;;;;;;;;12.49;100.00;96629.75;5084757;28;20032;-84
2023/10/25 10:43:28;;;;;;;;;;;;;;;12.56;100.00;96643.53;5076956;28;19976;-83
2023/10/25 10:45:55;;;;;;;;;;;;;;;12.60;100.00;96628.41;5084602;28;19973;-85
2023/10/25 10:48:26;;;;;;;;;;;;;;;12.60;100.00;96630.28;5088700;28;19923;-84
2023/10/25 10:50:53;;;;;;;;;;;;;;;12.68;100.00;96610.81;5081242;28;20274;-85
2023/10/25 10:53:19;;;;;;;;;;;;;;;12.74;100.00;96615.72;5085368;28;19928;-85
2023/10/25 10:55:46;;;;;;;;;;;;;;;12.67;100.00;96617.25;5084918;28;19928;-85
2023/10/25 10:58:13;;;;;;;;;;;;;;;12.60;100.00;96603.50;5086822;28;19928;-84
2023/10/25 11:00:44;;;;;;;;;;;;;;;12.68;100.00;96595.53;5080559;28;19989;-84
2023/10/25 11:03:12;;;;;;;;;;;;;;;12.64;100.00;96597.25;5066552;28;19966;-86
2023/10/25 11:05:38;;;;;;;;;;;;;;;12.63;100.00;96590.28;5087907;28;20442;-84
2023/10/25 11:08:09;;;;;;;;;;;;;;;12.64;100.00;96578.50;5071026;28;20470;-85
2023/10/25 11:10:36;;;;;;;;;;;;;;;12.73;100.00;96576.63;5081391;28;20023;-83
2023/10/25 11:13:06;;;;;;;;;;;;;;;12.75;100.00;96577.13;5066360;28;19955;-85
2023/10/25 11:15:33;;;;;;;;;;;;;;;12.78;100.00;96586.44;5083252;28;19977;-85
2023/10/25 11:18:00;;;;;;;;;;;;;;;12.74;100.00;96583.59;5080245;28;20023;-85
2023/10/25 11:20:28;;;;;;;;;;;;;;;12.78;100.00;96575.72;5084993;28;19928;-85
2023/10/25 11:22:54;;;;;;;;;;;;;;;12.82;100.00;96568.63;5088192;28;20334;-84
2023/10/25 11:25:21;;;;;;;;;;;;;;;12.94;100.00;96560.78;5071968;28;19935;-84
2023/10/25 11:27:48;;;;;;;;;;;;;;;13.07;100.00;96557.22;5084031;28;19935;-84
2023/10/25 11:30:14;;;;;;;;;;;;;;;13.06;100.00;96555.63;5084607;28;19927;-83
2023/10/25 11:32:42;;;;;;;;;;;;;;;13.13;100.00;96547.16;5068629;28;20019;-83
2023/10/25 11:35:20;;;;;;;;;;;;;;;13.08;100.00;96542.75;5074805;28;19929;-84
2023/10/25 11:37:47;;;;;;;;;;;;;;;13.11;100.00;96533.28;5073148;28;19936;-84
2023/10/25 11:40:14;;;;;;;;;;;;;;;12.97;100.00;96528.81;5089093;28;20003;-84
2023/10/25 11:42:42;;;;;;;;;;;;;;;12.90;100.00;96528.47;5090063;28;19932;-83
2023/10/25 11:45:09;;;;;;;;;;;;;;;13.00;100.00;96506.75;5081819;28;20473;-84
2023/10/25 11:47:37;;;;;;;;;;;;;;;13.16;100.00;96525.88;5084022;28;19938;-83
2023/10/25 11:50:04;;;;;;;;;;;;;;;13.21;100.00;96515.03;5088065;28;19967;-84
2023/10/25 11:52:31;;;;;;;;;;;;;;;13.24;100.00;96516.31;5087424;28;19960;-84
2023/10/25 11:54:59;;;;;;;;;;;;;;;13.28;100.00;96517.22;5066442;28;19924;-84
2023/10/25 11:57:26;;;;;;;;;;;;;;;13.37;100.00;96504.63;5084949;28;19950;-85
2023/10/25 11:59:53;;;;;;;;;;;;;;;13.42;100.00;96497.25;5085361;28;19959;-84
2023/10/25 12:02:20;;;;;;;;;;;;;;;13.49;100.00;96494.09;5081850;28;19933;-83
2023/10/25 12:04:46;;;;;;;;;;;;;;;13.51;100.00;96487.28;5086797;28;20629;-84
2023/10/25 12:07:13;;;;;;;;;;;;;;;13.45;100.00;96485.09;5072029;28;19934;-83
2023/10/25 12:09:41;;;;;;;;;;;;;;;13.45;100.00;96482.41;5085511;28;20478;-84
2023/10/25 12:12:09;;;;;;;;;;;;;;;13.55;100.00;96474.03;5086593;28;20338;-84
2023/10/25 12:14:36;;;;;;;;;;;;;;;13.74;100.00;96476.41;5063803;28;20011;-84
2023/10/25 12:17:03;;;;;;;;;;;;;;;13.67;100.00;96471.50;5080142;28;19950;-84
2023/10/25 12:19:29;;;;;;;;;;;;;;;13.68;100.00;96467.72;5070288;28;19929;-84
2023/10/25 12:21:57;;;;;;;;;;;;;;;13.71;100.00;96460.94;5073683;28;19928;-83
2023/10/25 12:24:24;;;;;;;;;;;;;;;13.65;100.00;96456.84;5072862;28;19925;-83
2023/10/25 12:26:50;;;;;;;;;;;;;;;13.64;100.00;96449.91;5079634;28;19983;-83
2023/10/25 12:29:18;;;;;;;;;;;;;;;13.55;100.00;96441.88;5080884;28;19958;-83
2023/10/25 12:31:45;;;;;;;;;;;;;;;13.63;100.00;96437.56;5069076;28;19935;-83
2023/10/25 12:34:11;;;;;;;;;;;;;;;13.71;100.00;96429.50;5080906;28;19924;-83
2023/10/25 12:36:38;;;;;;;;;;;;;;;13.74;100.00;96418.13;5066900;28;20468;-83